Maran Poseidon — SVAV3 — position and weather

sailwx.info

Track history (hours):
 
Tides and Currents Weather Stations Pressure Air Temp Water Temp Dewpoint Dewpoint Depression Visibility Wind Speed Wind Dir Waves Ship Positions

Maran Poseidon

Last reported at 2018-Apr-25 03:14 UTC. Time now 2018-Apr-25 18:28 UTC.
Position N 35°58' W 005°36'.

Length 274 m; draft 16.5 m.

Type: Ship. MMSI: 240959000.

Date/timePositionNaut miles runAvg speedWind from/ knotsBaromVisibWave heightAir tempDewpointWater temp
2018-Apr-25 03:14N 35°58' W 005°36'2 9.4
2018-Apr-25 03:00N 35°58' W 005°34'5 9.1
2018-Apr-25 02:30N 35°60' W 005°28'5 9.3
2018-Apr-25 01:59N 36°01' W 005°23'510.5
2018-Apr-25 01:30N 36°02' W 005°16'25611.9
2018-Apr-24 03:52N 37°05' W 000°07'1013.2
2018-Apr-24 03:05N 37°07' E 000°06'112.9
2018-Apr-24 03:00N 37°07' E 000°07'2012.5
2018-Apr-24 01:23N 37°09' E 000°32'512.5
2018-Apr-24 00:59N 37°09' E 000°39'612.4
2018-Apr-24 00:29N 37°10' E 000°46'612.3
2018-Apr-24 00:00N 37°10' E 000°54'612.1
2018-Apr-23 23:29N 37°10' E 001°02'612.1
2018-Apr-23 22:59N 37°11' E 001°09'812.6
2018-Apr-23 22:20N 37°12' E 001°20'1012.8
2018-Apr-23 21:35N 37°13' E 001°32'112.8
2018-Apr-23 21:30N 37°13' E 001°33'712.7
2018-Apr-23 20:57N 37°13' E 001°42'1312.5
2018-Apr-23 19:56N 37°14' E 001°58'612.9
2018-Apr-23 19:27N 37°15' E 002°06'613.0
2018-Apr-23 19:00N 37°15' E 002°13'813.3
2018-Apr-23 18:22N 37°16' E 002°23'513.1
2018-Apr-23 18:00N 37°16' E 002°30'613.0
2018-Apr-23 17:30N 37°16' E 002°38'813.0
2018-Apr-23 16:54N 37°17' E 002°47'512.8
2018-Apr-23 16:30N 37°17' E 002°54'712.8
2018-Apr-23 16:00N 37°18' E 003°02'1212.4
2018-Apr-23 15:02N 37°19' E 003°17'012.1
2018-Apr-23 15:00N 37°19' E 003°17'612.2
2018-Apr-23 14:30N 37°19' E 003°25'612.2
2018-Apr-23 14:00N 37°20' E 003°33'1112.5
2018-Apr-23 13:07N 37°21' E 003°46'212.5
2018-Apr-23 13:00N 37°21' E 003°48'612.5
2018-Apr-23 12:30N 37°21' E 003°56'612.7
2018-Apr-23 12:00N 37°22' E 004°04'1512.6
2018-Apr-23 10:49N 37°23' E 004°23'412.8
2018-Apr-23 10:30N 37°23' E 004°28'1012.6
2018-Apr-23 09:44N 37°24' E 004°40'312.4
2018-Apr-23 09:30N 37°24' E 004°43'612.3
2018-Apr-23 09:00N 37°25' E 004°51'1612.0
2018-Apr-23 07:39N 37°26' E 005°12'212.0
2018-Apr-23 07:30N 37°26' E 005°14'612.4
2018-Apr-23 07:00N 37°27' E 005°22'1112.7
2018-Apr-23 06:07N 37°27' E 005°36'112.4
2018-Apr-23 06:00N 37°27' E 005°38'2212.9
2018-Apr-23 04:18N 37°29' E 006°05'13112.8
2018-Apr-22 18:08N 37°37' E 008°49'312.8
2018-Apr-22 17:55N 37°37' E 008°53'1512.8
2018-Apr-22 16:46N 37°38' E 009°11'412.8
2018-Apr-22 16:29N 37°38' E 009°16'612.7
2018-Apr-22 16:00N 37°38' E 009°24'812.3
2018-Apr-22 15:23N 37°38' E 009°33'512.5
2018-Apr-22 14:56N 37°38' E 009°40'612.5
2018-Apr-22 14:30N 37°39' E 009°47'612.3
2018-Apr-22 14:00N 37°39' E 009°55'18312.5
2018-Apr-21 23:23N 36°27' E 013°25'714.7
2018-Apr-21 22:55N 36°26' E 013°34'4 9.4
2018-Apr-21 22:28N 36°25' E 013°39'611.7
2018-Apr-21 21:58N 36°24' E 013°46'612.9
2018-Apr-21 21:30N 36°23' E 013°54'713.7
2018-Apr-21 20:59N 36°22' E 014°02'511.4
2018-Apr-21 20:30N 36°21' E 014°09'713.6
2018-Apr-21 19:58N 36°20' E 014°18'815.4
2018-Apr-21 19:28N 36°18' E 014°27'714.0
2018-Apr-21 18:57N 36°16' E 014°36'612.4
2018-Apr-21 18:30N 36°14' E 014°43'713.9
2018-Apr-21 18:00N 36°13' E 014°51'4 8.6
2018-Apr-21 17:28N 36°12' E 014°56'713.4
2018-Apr-21 16:58N 36°11' E 015°05'  
2018-Apr-19 01:51N 32°04' E 030°49'2012.8
2018-Apr-19 00:18N 31°57' E 031°12'1412.7
2018-Apr-18 23:14N 31°54' E 031°27'312.8
2018-Apr-18 23:00N 31°53' E 031°30'612.9
2018-Apr-18 22:30N 31°51' E 031°38'613.0
2018-Apr-18 22:00N 31°50' E 031°45'713.0
2018-Apr-18 21:28N 31°47' E 031°53'1012.3
2018-Apr-18 20:39N 31°42' E 032°03'412.6
2018-Apr-18 20:20N 31°39' E 032°06'412.5
2018-Apr-18 20:00N 31°36' E 032°10'912.3
2018-Apr-18 19:16N 31°31' E 032°18'9 8.7
2018-Apr-18 18:13N 31°23' E 032°23'2 9.9
2018-Apr-18 17:59N 31°21' E 032°23'5 9.5
2018-Apr-18 17:28N 31°16' E 032°21'4 8.0
2018-Apr-18 17:00N 31°12' E 032°20'4 7.1
2018-Apr-18 16:30N 31°09' E 032°19'7 8.6
2018-Apr-18 15:41N 31°02' E 032°19'  
Track history (hours):
 
Tides and Currents Weather Stations Pressure Air Temp Water Temp Dewpoint Dewpoint Depression Visibility Wind Speed Wind Dir Waves Ship Positions

Maran Poseidon

Last reported at 2018-Apr-25 03:14 UTC. Time now 2018-Apr-25 18:28 UTC.
Position N 35°58' W 005°36'.

Length 274 m; draft 16.5 m.

Type: Ship. MMSI: 240959000.

Date/timePositionNaut miles runAvg speedWind from/ knotsBaromVisibWave heightAir tempDewpointWater temp
2018-Apr-25 03:14N 35°58' W 005°36'2 9.4
2018-Apr-25 03:00N 35°58' W 005°34'5 9.1
2018-Apr-25 02:30N 35°60' W 005°28'5 9.3
2018-Apr-25 01:59N 36°01' W 005°23'510.5
2018-Apr-25 01:30N 36°02' W 005°16'25611.9
2018-Apr-24 03:52N 37°05' W 000°07'1013.2
2018-Apr-24 03:05N 37°07' E 000°06'112.9
2018-Apr-24 03:00N 37°07' E 000°07'2012.5
2018-Apr-24 01:23N 37°09' E 000°32'512.5
2018-Apr-24 00:59N 37°09' E 000°39'612.4
2018-Apr-24 00:29N 37°10' E 000°46'612.3
2018-Apr-24 00:00N 37°10' E 000°54'612.1
2018-Apr-23 23:29N 37°10' E 001°02'612.1
2018-Apr-23 22:59N 37°11' E 001°09'812.6
2018-Apr-23 22:20N 37°12' E 001°20'1012.8
2018-Apr-23 21:35N 37°13' E 001°32'112.8
2018-Apr-23 21:30N 37°13' E 001°33'712.7
2018-Apr-23 20:57N 37°13' E 001°42'1312.5
2018-Apr-23 19:56N 37°14' E 001°58'612.9
2018-Apr-23 19:27N 37°15' E 002°06'613.0
2018-Apr-23 19:00N 37°15' E 002°13'813.3
2018-Apr-23 18:22N 37°16' E 002°23'513.1
2018-Apr-23 18:00N 37°16' E 002°30'613.0
2018-Apr-23 17:30N 37°16' E 002°38'813.0
2018-Apr-23 16:54N 37°17' E 002°47'512.8
2018-Apr-23 16:30N 37°17' E 002°54'712.8
2018-Apr-23 16:00N 37°18' E 003°02'1212.4
2018-Apr-23 15:02N 37°19' E 003°17'012.1
2018-Apr-23 15:00N 37°19' E 003°17'612.2
2018-Apr-23 14:30N 37°19' E 003°25'612.2
2018-Apr-23 14:00N 37°20' E 003°33'1112.5
2018-Apr-23 13:07N 37°21' E 003°46'212.5
2018-Apr-23 13:00N 37°21' E 003°48'612.5
2018-Apr-23 12:30N 37°21' E 003°56'612.7
2018-Apr-23 12:00N 37°22' E 004°04'1512.6
2018-Apr-23 10:49N 37°23' E 004°23'412.8
2018-Apr-23 10:30N 37°23' E 004°28'1012.6
2018-Apr-23 09:44N 37°24' E 004°40'312.4
2018-Apr-23 09:30N 37°24' E 004°43'612.3
2018-Apr-23 09:00N 37°25' E 004°51'1612.0
2018-Apr-23 07:39N 37°26' E 005°12'212.0
2018-Apr-23 07:30N 37°26' E 005°14'612.4
2018-Apr-23 07:00N 37°27' E 005°22'1112.7
2018-Apr-23 06:07N 37°27' E 005°36'112.4
2018-Apr-23 06:00N 37°27' E 005°38'2212.9
2018-Apr-23 04:18N 37°29' E 006°05'13112.8
2018-Apr-22 18:08N 37°37' E 008°49'312.8
2018-Apr-22 17:55N 37°37' E 008°53'1512.8
2018-Apr-22 16:46N 37°38' E 009°11'412.8
2018-Apr-22 16:29N 37°38' E 009°16'612.7
2018-Apr-22 16:00N 37°38' E 009°24'812.3
2018-Apr-22 15:23N 37°38' E 009°33'512.5
2018-Apr-22 14:56N 37°38' E 009°40'612.5
2018-Apr-22 14:30N 37°39' E 009°47'612.3
2018-Apr-22 14:00N 37°39' E 009°55'18312.5
2018-Apr-21 23:23N 36°27' E 013°25'714.7
2018-Apr-21 22:55N 36°26' E 013°34'4 9.4
2018-Apr-21 22:28N 36°25' E 013°39'611.7
2018-Apr-21 21:58N 36°24' E 013°46'612.9
2018-Apr-21 21:30N 36°23' E 013°54'713.7
2018-Apr-21 20:59N 36°22' E 014°02'511.4
2018-Apr-21 20:30N 36°21' E 014°09'713.6
2018-Apr-21 19:58N 36°20' E 014°18'815.4
2018-Apr-21 19:28N 36°18' E 014°27'714.0
2018-Apr-21 18:57N 36°16' E 014°36'612.4
2018-Apr-21 18:30N 36°14' E 014°43'713.9
2018-Apr-21 18:00N 36°13' E 014°51'4 8.6
2018-Apr-21 17:28N 36°12' E 014°56'713.4
2018-Apr-21 16:58N 36°11' E 015°05'  
2018-Apr-19 01:51N 32°04' E 030°49'2012.8
2018-Apr-19 00:18N 31°57' E 031°12'1412.7
2018-Apr-18 23:14N 31°54' E 031°27'312.8
2018-Apr-18 23:00N 31°53' E 031°30'612.9
2018-Apr-18 22:30N 31°51' E 031°38'613.0
2018-Apr-18 22:00N 31°50' E 031°45'713.0
2018-Apr-18 21:28N 31°47' E 031°53'1012.3
2018-Apr-18 20:39N 31°42' E 032°03'412.6
2018-Apr-18 20:20N 31°39' E 032°06'412.5
2018-Apr-18 20:00N 31°36' E 032°10'912.3
2018-Apr-18 19:16N 31°31' E 032°18'9 8.7
2018-Apr-18 18:13N 31°23' E 032°23'2 9.9
2018-Apr-18 17:59N 31°21' E 032°23'5 9.5
2018-Apr-18 17:28N 31°16' E 032°21'4 8.0
2018-Apr-18 17:00N 31°12' E 032°20'4 7.1
2018-Apr-18 16:30N 31°09' E 032°19'7 8.6
2018-Apr-18 15:41N 31°02' E 032°19'  

Dump ship's entire track history